This is the latest recevied weather packets stored in our database for station/object K1TTC. If no packets are shown the sender has not sent any weather packets the latest 10 day(s).
| Time | Temp. | Humidity | Pressure | Rain* | Wind** | Luminosity | Snow |
|---|---|---|---|---|---|---|---|
| 1777861290 | 5.56° C | 51% | 1011.2 hPa | 0 mm | - | 0 W/m² | - |
| 1777860788 | 5.56° C | 50% | 1011.1 hPa | 0 mm | - | 0 W/m² | - |
| 1777860091 | 6.11° C | 49% | 1011.1 hPa | 0 mm | - | 0 W/m² | - |
| 1777859491 | 6.67° C | 48% | 1011 hPa | 0 mm | - | 0 W/m² | - |
| 1777858980 | 7.22° C | 47% | 1011 hPa | 0 mm | - | 0 W/m² | - |
| 1777858290 | 7.78° C | 45% | 1010.8 hPa | 0 mm | - | 0 W/m² | - |
| 1777857089 | 8.33° C | 42% | 1010.6 hPa | 0 mm | - | 0 W/m² | - |
| 1777856489 | 8.89° C | 41% | 1010.5 hPa | 0 mm | - | 0 W/m² | - |
| 1777855889 | 9.44° C | 39% | 1010.3 hPa | 0 mm | - | 0 W/m² | - |
| 1777855289 | 9.44° C | 38% | 1010.3 hPa | 0 mm | - | 0 W/m² | - |
| 1777854689 | 10° C | 37% | 1010.1 hPa | 0 mm | - | 0 W/m² | - |
| 1777854089 | 10° C | 37% | 1010.1 hPa | 0 mm | - | 0 W/m² | - |
| 1777853489 | 10° C | 36% | 1009.8 hPa | 0 mm | - | 0 W/m² | - |
| 1777852889 | 10.56° C | 36% | 1009.6 hPa | 0 mm | - | 0 W/m² | - |
| 1777852289 | 10.56° C | 35% | 1009.6 hPa | 0 mm | - | 0 W/m² | - |
| 1777851688 | 10.56° C | 35% | 1009.3 hPa | 0 mm | - | 5 W/m² | - |
| 1777851089 | 10.56° C | 34% | 1009.3 hPa | 0 mm | - | 14 W/m² | - |
| 1777850483 | 11.11° C | 33% | 1009.1 hPa | 0 mm | - | 14 W/m² | - |
| 1777849882 | 11.11° C | 33% | 1009 hPa | 0 mm | - | 26 W/m² | - |
| 1777849282 | 11.11° C | 33% | 1008.9 hPa | 0 mm | - | 23 W/m² | - |
| 1777848685 | 11.11° C | 33% | 1008.9 hPa | 0 mm | - | 35 W/m² | - |
| 1777848079 | 11.11° C | 33% | 1008.8 hPa | 0 mm | - | 35 W/m² | - |
| 1777847551 | 11.11° C | 32% | 1008.5 hPa | 0 mm | - | 83 W/m² | - |
| 1777846877 | 11.67° C | 33% | 1008.4 hPa | 0 mm | - | 70 W/m² | - |
| 1777846277 | 11.11° C | 33% | 1008.4 hPa | 0 mm | - | 132 W/m² | - |
* Rain latest hour (hover to see other rain measurements)
** Current wind speed in m/s (hover to see current wind gust speed)